Terminal Aerodrome Forecast
Issued by NWS Cleveland, OH

Home | Current Version | Previous Version | Graphics & Text | Print | Product List | Glossary Off
Versions: 1 2 3 4 5 6 7 8 9 10 11 12 13 14 15 16 17 18 19 20 21 22 23

826
FTUS41 KCLE 311134
TAFTOL
TAF
KTOL 311134Z 3112/0112 30005KT 2SM BR VCSH OVC002
      TEMPO 3112/3113 BKN006 BKN035
     FM311300 30005KT P6SM VCSH SCT019 OVC035
      TEMPO 3113/3115 BKN019 OVC030
     FM311900 35010KT P6SM SCT015 OVC035
      TEMPO 3121/3124 BKN015 OVC030
     FM010200 01005KT P6SM SCT035=

USA.gov is the U.S. government's official web portal to all federal, state and local government web resources and services.